sensor_id;sensor_type;location;lat;lon;timestamp;P1;durP1;ratioP1;P2;durP2;ratioP2
28003;SDS011;15330;51.234;6.754;2023-04-24T00:00:11;4.20;;;1.40;;
28003;SDS011;15330;51.234;6.754;2023-04-24T00:02:43;3.58;;;1.40;;
28003;SDS011;15330;51.234;6.754;2023-04-24T00:05:16;1.50;;;1.40;;
28003;SDS011;15330;51.234;6.754;2023-04-24T00:07:42;2.70;;;1.60;;
28003;SDS011;15330;51.234;6.754;2023-04-24T00:10:09;2.95;;;1.55;;
28003;SDS011;15330;51.234;6.754;2023-04-24T00:12:35;1.52;;;1.42;;
28003;SDS011;15330;51.234;6.754;2023-04-24T00:15:01;3.10;;;1.67;;
28003;SDS011;15330;51.234;6.754;2023-04-24T00:17:28;1.52;;;1.42;;
28003;SDS011;15330;51.234;6.754;2023-04-24T00:19:53;6.63;;;1.90;;
28003;SDS011;15330;51.234;6.754;2023-04-24T00:22:25;3.08;;;1.58;;
28003;SDS011;15330;51.234;6.754;2023-04-24T00:24:52;1.98;;;1.50;;
28003;SDS011;15330;51.234;6.754;2023-04-24T00:27:18;2.50;;;1.50;;
28003;SDS011;15330;51.234;6.754;2023-04-24T00:29:43;3.28;;;2.05;;
28003;SDS011;15330;51.234;6.754;2023-04-24T00:32:09;4.03;;;1.63;;
28003;SDS011;15330;51.234;6.754;2023-04-24T00:34:34;2.80;;;2.13;;
28003;SDS011;15330;51.234;6.754;2023-04-24T00:37:00;1.90;;;1.65;;
28003;SDS011;15330;51.234;6.754;2023-04-24T00:39:26;2.42;;;2.10;;
28003;SDS011;15330;51.234;6.754;2023-04-24T00:41:51;2.63;;;2.10;;
28003;SDS011;15330;51.234;6.754;2023-04-24T00:44:17;4.70;;;2.33;;
28003;SDS011;15330;51.234;6.754;2023-04-24T00:46:43;5.20;;;1.80;;
28003;SDS011;15330;51.234;6.754;2023-04-24T00:49:08;3.50;;;2.25;;
28003;SDS011;15330;51.234;6.754;2023-04-24T00:51:34;3.20;;;2.38;;
28003;SDS011;15330;51.234;6.754;2023-04-24T00:53:59;3.28;;;2.08;;
28003;SDS011;15330;51.234;6.754;2023-04-24T00:56:26;5.10;;;2.50;;
28003;SDS011;15330;51.234;6.754;2023-04-24T00:58:52;4.32;;;2.20;;
28003;SDS011;15330;51.234;6.754;2023-04-24T01:01:20;3.75;;;2.65;;
28003;SDS011;15330;51.234;6.754;2023-04-24T01:03:47;4.55;;;2.47;;
28003;SDS011;15330;51.234;6.754;2023-04-24T01:06:15;6.55;;;3.20;;
28003;SDS011;15330;51.234;6.754;2023-04-24T01:08:41;3.80;;;3.00;;
28003;SDS011;15330;51.234;6.754;2023-04-24T01:11:08;4.78;;;2.80;;
28003;SDS011;15330;51.234;6.754;2023-04-24T01:13:34;3.20;;;2.90;;
28003;SDS011;15330;51.234;6.754;2023-04-24T01:15:59;5.30;;;4.00;;
28003;SDS011;15330;51.234;6.754;2023-04-24T01:18:25;6.13;;;3.38;;
28003;SDS011;15330;51.234;6.754;2023-04-24T01:20:53;6.68;;;4.30;;
28003;SDS011;15330;51.234;6.754;2023-04-24T01:23:21;6.03;;;4.28;;
28003;SDS011;15330;51.234;6.754;2023-04-24T01:25:47;6.88;;;4.65;;
28003;SDS011;15330;51.234;6.754;2023-04-24T01:28:13;8.65;;;5.53;;
28003;SDS011;15330;51.234;6.754;2023-04-24T01:30:39;10.30;;;5.97;;
28003;SDS011;15330;51.234;6.754;2023-04-24T01:33:05;13.32;;;7.80;;
28003;SDS011;15330;51.234;6.754;2023-04-24T01:35:31;15.65;;;9.80;;
28003;SDS011;15330;51.234;6.754;2023-04-24T01:37:57;14.02;;;8.77;;
28003;SDS011;15330;51.234;6.754;2023-04-24T01:40:22;13.77;;;8.20;;
28003;SDS011;15330;51.234;6.754;2023-04-24T01:42:48;16.27;;;8.52;;
28003;SDS011;15330;51.234;6.754;2023-04-24T01:45:13;13.07;;;7.88;;
28003;SDS011;15330;51.234;6.754;2023-04-24T01:47:39;17.17;;;7.95;;
28003;SDS011;15330;51.234;6.754;2023-04-24T01:50:05;19.85;;;9.20;;
28003;SDS011;15330;51.234;6.754;2023-04-24T01:52:31;14.35;;;8.23;;
28003;SDS011;15330;51.234;6.754;2023-04-24T01:55:01;13.52;;;8.98;;
28003;SDS011;15330;51.234;6.754;2023-04-24T01:57:27;13.15;;;8.88;;
28003;SDS011;15330;51.234;6.754;2023-04-24T01:59:55;13.95;;;8.82;;
28003;SDS011;15330;51.234;6.754;2023-04-24T02:02:20;14.13;;;9.02;;
28003;SDS011;15330;51.234;6.754;2023-04-24T02:04:48;12.52;;;8.88;;
28003;SDS011;15330;51.234;6.754;2023-04-24T02:07:13;18.80;;;9.45;;
28003;SDS011;15330;51.234;6.754;2023-04-24T02:09:38;17.63;;;8.98;;
28003;SDS011;15330;51.234;6.754;2023-04-24T02:12:04;14.75;;;9.80;;
28003;SDS011;15330;51.234;6.754;2023-04-24T02:14:29;16.27;;;10.13;;
28003;SDS011;15330;51.234;6.754;2023-04-24T02:16:55;16.25;;;8.95;;
28003;SDS011;15330;51.234;6.754;2023-04-24T02:19:20;16.80;;;10.35;;
28003;SDS011;15330;51.234;6.754;2023-04-24T02:21:45;17.48;;;11.05;;
28003;SDS011;15330;51.234;6.754;2023-04-24T02:24:11;19.33;;;10.65;;
28003;SDS011;15330;51.234;6.754;2023-04-24T02:26:36;18.20;;;10.52;;
28003;SDS011;15330;51.234;6.754;2023-04-24T02:29:01;18.58;;;11.07;;
28003;SDS011;15330;51.234;6.754;2023-04-24T02:31:27;18.55;;;11.13;;
28003;SDS011;15330;51.234;6.754;2023-04-24T02:33:52;18.33;;;11.85;;
28003;SDS011;15330;51.234;6.754;2023-04-24T02:36:18;19.58;;;12.02;;
28003;SDS011;15330;51.234;6.754;2023-04-24T02:38:43;24.08;;;11.13;;
28003;SDS011;15330;51.234;6.754;2023-04-24T02:41:08;17.52;;;11.10;;
28003;SDS011;15330;51.234;6.754;2023-04-24T02:43:34;19.70;;;11.80;;
28003;SDS011;15330;51.234;6.754;2023-04-24T02:46:00;19.48;;;12.55;;
28003;SDS011;15330;51.234;6.754;2023-04-24T02:48:25;18.17;;;11.95;;
28003;SDS011;15330;51.234;6.754;2023-04-24T02:50:50;19.52;;;12.18;;
28003;SDS011;15330;51.234;6.754;2023-04-24T02:53:16;19.20;;;11.90;;
28003;SDS011;15330;51.234;6.754;2023-04-24T02:55:42;18.92;;;11.82;;
28003;SDS011;15330;51.234;6.754;2023-04-24T02:58:07;18.92;;;12.15;;
28003;SDS011;15330;51.234;6.754;2023-04-24T03:00:32;21.20;;;11.75;;
28003;SDS011;15330;51.234;6.754;2023-04-24T03:02:58;25.08;;;12.68;;
28003;SDS011;15330;51.234;6.754;2023-04-24T03:05:24;16.95;;;11.48;;
28003;SDS011;15330;51.234;6.754;2023-04-24T03:07:49;20.83;;;12.43;;
28003;SDS011;15330;51.234;6.754;2023-04-24T03:10:14;26.85;;;12.50;;
28003;SDS011;15330;51.234;6.754;2023-04-24T03:12:40;21.92;;;12.48;;
28003;SDS011;15330;51.234;6.754;2023-04-24T03:15:06;20.45;;;12.23;;
28003;SDS011;15330;51.234;6.754;2023-04-24T03:17:32;19.48;;;11.88;;
28003;SDS011;15330;51.234;6.754;2023-04-24T03:19:57;19.40;;;11.75;;
28003;SDS011;15330;51.234;6.754;2023-04-24T03:22:23;15.48;;;10.93;;
28003;SDS011;15330;51.234;6.754;2023-04-24T03:24:48;23.30;;;11.65;;
28003;SDS011;15330;51.234;6.754;2023-04-24T03:27:13;22.30;;;11.52;;
28003;SDS011;15330;51.234;6.754;2023-04-24T03:29:39;19.40;;;10.70;;
28003;SDS011;15330;51.234;6.754;2023-04-24T03:32:04;21.58;;;11.60;;
28003;SDS011;15330;51.234;6.754;2023-04-24T03:34:30;17.52;;;11.38;;
28003;SDS011;15330;51.234;6.754;2023-04-24T03:36:55;20.00;;;11.95;;
28003;SDS011;15330;51.234;6.754;2023-04-24T03:39:21;19.55;;;10.63;;
28003;SDS011;15330;51.234;6.754;2023-04-24T03:41:46;21.85;;;11.80;;
28003;SDS011;15330;51.234;6.754;2023-04-24T03:44:11;16.48;;;10.45;;
28003;SDS011;15330;51.234;6.754;2023-04-24T03:46:37;18.02;;;10.52;;
28003;SDS011;15330;51.234;6.754;2023-04-24T03:49:02;21.00;;;10.55;;
28003;SDS011;15330;51.234;6.754;2023-04-24T03:51:27;19.67;;;10.90;;
28003;SDS011;15330;51.234;6.754;2023-04-24T03:53:55;21.33;;;12.27;;
28003;SDS011;15330;51.234;6.754;2023-04-24T03:56:20;16.33;;;11.38;;
28003;SDS011;15330;51.234;6.754;2023-04-24T03:58:46;21.65;;;11.75;;
28003;SDS011;15330;51.234;6.754;2023-04-24T04:01:11;19.08;;;11.32;;
28003;SDS011;15330;51.234;6.754;2023-04-24T04:03:37;20.90;;;11.85;;
28003;SDS011;15330;51.234;6.754;2023-04-24T04:06:02;19.35;;;11.23;;
28003;SDS011;15330;51.234;6.754;2023-04-24T04:08:28;21.42;;;12.23;;
28003;SDS011;15330;51.234;6.754;2023-04-24T04:10:53;19.25;;;10.93;;
28003;SDS011;15330;51.234;6.754;2023-04-24T04:13:18;19.70;;;11.98;;
28003;SDS011;15330;51.234;6.754;2023-04-24T04:15:44;20.92;;;11.77;;
28003;SDS011;15330;51.234;6.754;2023-04-24T04:18:09;19.45;;;11.80;;
28003;SDS011;15330;51.234;6.754;2023-04-24T04:20:35;16.60;;;11.95;;
28003;SDS011;15330;51.234;6.754;2023-04-24T04:23:00;24.25;;;11.88;;
28003;SDS011;15330;51.234;6.754;2023-04-24T04:25:25;23.80;;;12.00;;
28003;SDS011;15330;51.234;6.754;2023-04-24T04:27:51;17.75;;;11.32;;
28003;SDS011;15330;51.234;6.754;2023-04-24T04:30:17;21.08;;;11.43;;
28003;SDS011;15330;51.234;6.754;2023-04-24T04:32:43;18.00;;;11.85;;
28003;SDS011;15330;51.234;6.754;2023-04-24T04:35:09;17.48;;;10.43;;
28003;SDS011;15330;51.234;6.754;2023-04-24T04:37:35;16.58;;;10.30;;
28003;SDS011;15330;51.234;6.754;2023-04-24T04:40:00;15.85;;;10.20;;
28003;SDS011;15330;51.234;6.754;2023-04-24T04:42:31;19.55;;;10.55;;
28003;SDS011;15330;51.234;6.754;2023-04-24T04:44:57;17.05;;;10.63;;
28003;SDS011;15330;51.234;6.754;2023-04-24T04:47:23;15.52;;;11.02;;
28003;SDS011;15330;51.234;6.754;2023-04-24T04:49:48;19.20;;;11.32;;
28003;SDS011;15330;51.234;6.754;2023-04-24T04:52:14;19.77;;;11.02;;
28003;SDS011;15330;51.234;6.754;2023-04-24T04:54:39;20.40;;;12.43;;
28003;SDS011;15330;51.234;6.754;2023-04-24T04:57:05;23.52;;;13.13;;
28003;SDS011;15330;51.234;6.754;2023-04-24T04:59:31;23.45;;;13.00;;
28003;SDS011;15330;51.234;6.754;2023-04-24T05:01:56;20.10;;;11.95;;
28003;SDS011;15330;51.234;6.754;2023-04-24T05:04:22;23.02;;;12.63;;
28003;SDS011;15330;51.234;6.754;2023-04-24T05:06:47;21.20;;;11.93;;
28003;SDS011;15330;51.234;6.754;2023-04-24T05:09:13;23.67;;;11.55;;
28003;SDS011;15330;51.234;6.754;2023-04-24T05:11:38;14.95;;;10.80;;
28003;SDS011;15330;51.234;6.754;2023-04-24T05:14:03;21.13;;;12.02;;
28003;SDS011;15330;51.234;6.754;2023-04-24T05:16:29;17.90;;;11.82;;
28003;SDS011;15330;51.234;6.754;2023-04-24T05:18:55;14.95;;;10.45;;
28003;SDS011;15330;51.234;6.754;2023-04-24T05:21:20;17.20;;;11.45;;
28003;SDS011;15330;51.234;6.754;2023-04-24T05:23:46;16.13;;;10.57;;
28003;SDS011;15330;51.234;6.754;2023-04-24T05:26:12;17.08;;;11.55;;
28003;SDS011;15330;51.234;6.754;2023-04-24T05:28:38;20.65;;;11.48;;
28003;SDS011;15330;51.234;6.754;2023-04-24T05:31:04;15.10;;;11.48;;
28003;SDS011;15330;51.234;6.754;2023-04-24T05:33:29;20.13;;;11.30;;
28003;SDS011;15330;51.234;6.754;2023-04-24T05:35:55;19.42;;;11.70;;
28003;SDS011;15330;51.234;6.754;2023-04-24T05:38:21;16.48;;;10.35;;
28003;SDS011;15330;51.234;6.754;2023-04-24T05:40:46;25.05;;;11.40;;
28003;SDS011;15330;51.234;6.754;2023-04-24T05:43:12;18.27;;;11.05;;
28003;SDS011;15330;51.234;6.754;2023-04-24T05:45:38;16.75;;;10.30;;
28003;SDS011;15330;51.234;6.754;2023-04-24T05:48:04;15.52;;;10.50;;
28003;SDS011;15330;51.234;6.754;2023-04-24T05:50:29;16.48;;;10.13;;
28003;SDS011;15330;51.234;6.754;2023-04-24T05:52:55;13.68;;;10.07;;
28003;SDS011;15330;51.234;6.754;2023-04-24T05:55:23;14.65;;;9.73;;
28003;SDS011;15330;51.234;6.754;2023-04-24T05:57:49;15.82;;;10.82;;
28003;SDS011;15330;51.234;6.754;2023-04-24T06:00:15;16.10;;;10.15;;
28003;SDS011;15330;51.234;6.754;2023-04-24T06:02:41;17.23;;;9.48;;
28003;SDS011;15330;51.234;6.754;2023-04-24T06:05:06;19.58;;;10.07;;
28003;SDS011;15330;51.234;6.754;2023-04-24T06:07:33;16.08;;;9.07;;
28003;SDS011;15330;51.234;6.754;2023-04-24T06:09:59;15.60;;;9.93;;
28003;SDS011;15330;51.234;6.754;2023-04-24T06:12:25;14.90;;;9.90;;
28003;SDS011;15330;51.234;6.754;2023-04-24T06:14:50;13.50;;;9.68;;
28003;SDS011;15330;51.234;6.754;2023-04-24T06:17:16;11.63;;;8.27;;
28003;SDS011;15330;51.234;6.754;2023-04-24T06:19:42;13.70;;;8.18;;
28003;SDS011;15330;51.234;6.754;2023-04-24T06:22:10;14.40;;;8.30;;
28003;SDS011;15330;51.234;6.754;2023-04-24T06:24:36;11.38;;;8.32;;
28003;SDS011;15330;51.234;6.754;2023-04-24T06:27:01;17.60;;;8.38;;
28003;SDS011;15330;51.234;6.754;2023-04-24T06:29:27;13.23;;;7.93;;
28003;SDS011;15330;51.234;6.754;2023-04-24T06:31:52;16.38;;;8.43;;
28003;SDS011;15330;51.234;6.754;2023-04-24T06:34:18;14.15;;;8.50;;
28003;SDS011;15330;51.234;6.754;2023-04-24T06:36:43;9.40;;;7.00;;
28003;SDS011;15330;51.234;6.754;2023-04-24T06:39:09;9.60;;;7.18;;
28003;SDS011;15330;51.234;6.754;2023-04-24T06:41:35;10.20;;;7.30;;
28003;SDS011;15330;51.234;6.754;2023-04-24T06:44:00;12.70;;;8.40;;
28003;SDS011;15330;51.234;6.754;2023-04-24T06:46:26;11.75;;;7.63;;
28003;SDS011;15330;51.234;6.754;2023-04-24T06:48:53;15.38;;;7.57;;
28003;SDS011;15330;51.234;6.754;2023-04-24T06:51:24;11.52;;;8.30;;
28003;SDS011;15330;51.234;6.754;2023-04-24T06:53:53;13.30;;;8.30;;
28003;SDS011;15330;51.234;6.754;2023-04-24T06:56:19;9.82;;;7.22;;
28003;SDS011;15330;51.234;6.754;2023-04-24T06:58:45;12.90;;;7.63;;
28003;SDS011;15330;51.234;6.754;2023-04-24T07:01:11;13.98;;;7.95;;
28003;SDS011;15330;51.234;6.754;2023-04-24T07:03:36;17.98;;;7.45;;
28003;SDS011;15330;51.234;6.754;2023-04-24T07:06:02;8.88;;;5.72;;
28003;SDS011;15330;51.234;6.754;2023-04-24T07:08:28;10.80;;;6.22;;
28003;SDS011;15330;51.234;6.754;2023-04-24T07:10:55;10.27;;;6.03;;
28003;SDS011;15330;51.234;6.754;2023-04-24T07:13:22;8.93;;;6.25;;
28003;SDS011;15330;51.234;6.754;2023-04-24T07:15:48;12.65;;;8.25;;
28003;SDS011;15330;51.234;6.754;2023-04-24T07:18:15;11.40;;;5.65;;
28003;SDS011;15330;51.234;6.754;2023-04-24T07:20:41;6.18;;;5.03;;
28003;SDS011;15330;51.234;6.754;2023-04-24T07:23:06;7.45;;;4.65;;
28003;SDS011;15330;51.234;6.754;2023-04-24T07:25:32;21.17;;;9.20;;
28003;SDS011;15330;51.234;6.754;2023-04-24T07:27:57;7.47;;;4.18;;
28003;SDS011;15330;51.234;6.754;2023-04-24T07:30:23;5.13;;;2.75;;
28003;SDS011;15330;51.234;6.754;2023-04-24T07:32:48;10.20;;;5.15;;
28003;SDS011;15330;51.234;6.754;2023-04-24T07:35:14;3.65;;;2.47;;
28003;SDS011;15330;51.234;6.754;2023-04-24T07:37:39;4.38;;;2.20;;
28003;SDS011;15330;51.234;6.754;2023-04-24T07:40:05;4.97;;;2.15;;
28003;SDS011;15330;51.234;6.754;2023-04-24T07:42:31;2.60;;;1.30;;
28003;SDS011;15330;51.234;6.754;2023-04-24T07:44:56;1.92;;;1.25;;
28003;SDS011;15330;51.234;6.754;2023-04-24T07:47:22;2.20;;;0.93;;
28003;SDS011;15330;51.234;6.754;2023-04-24T07:49:47;1.17;;;1.00;;
28003;SDS011;15330;51.234;6.754;2023-04-24T07:52:12;1.27;;;0.85;;
28003;SDS011;15330;51.234;6.754;2023-04-24T07:54:38;1.38;;;1.15;;
28003;SDS011;15330;51.234;6.754;2023-04-24T07:57:03;2.65;;;1.55;;
28003;SDS011;15330;51.234;6.754;2023-04-24T07:59:29;4.32;;;1.60;;
28003;SDS011;15330;51.234;6.754;2023-04-24T08:01:54;3.67;;;1.90;;
28003;SDS011;15330;51.234;6.754;2023-04-24T08:04:20;7.18;;;1.80;;
28003;SDS011;15330;51.234;6.754;2023-04-24T08:06:47;5.00;;;1.65;;
28003;SDS011;15330;51.234;6.754;2023-04-24T08:09:12;2.08;;;1.25;;
28003;SDS011;15330;51.234;6.754;2023-04-24T08:11:38;4.10;;;1.40;;
28003;SDS011;15330;51.234;6.754;2023-04-24T08:14:03;4.47;;;2.35;;
28003;SDS011;15330;51.234;6.754;2023-04-24T08:16:28;1.40;;;1.30;;
28003;SDS011;15330;51.234;6.754;2023-04-24T08:18:54;3.60;;;2.00;;
28003;SDS011;15330;51.234;6.754;2023-04-24T08:21:19;3.22;;;2.30;;
28003;SDS011;15330;51.234;6.754;2023-04-24T08:23:45;5.25;;;2.95;;
28003;SDS011;15330;51.234;6.754;2023-04-24T08:26:11;4.30;;;2.15;;
28003;SDS011;15330;51.234;6.754;2023-04-24T08:28:37;6.28;;;2.70;;
28003;SDS011;15330;51.234;6.754;2023-04-24T08:31:03;6.38;;;3.13;;
28003;SDS011;15330;51.234;6.754;2023-04-24T08:33:28;3.65;;;2.20;;
28003;SDS011;15330;51.234;6.754;2023-04-24T08:35:59;3.92;;;2.30;;
28003;SDS011;15330;51.234;6.754;2023-04-24T08:38:26;4.93;;;2.97;;
28003;SDS011;15330;51.234;6.754;2023-04-24T08:40:52;4.53;;;2.90;;
28003;SDS011;15330;51.234;6.754;2023-04-24T08:43:17;6.47;;;2.50;;
28003;SDS011;15330;51.234;6.754;2023-04-24T08:45:45;5.72;;;2.97;;
28003;SDS011;15330;51.234;6.754;2023-04-24T08:48:10;3.20;;;2.53;;
28003;SDS011;15330;51.234;6.754;2023-04-24T08:50:36;4.50;;;2.90;;
28003;SDS011;15330;51.234;6.754;2023-04-24T08:53:03;5.43;;;4.00;;
28003;SDS011;15330;51.234;6.754;2023-04-24T08:55:29;11.20;;;5.57;;
28003;SDS011;15330;51.234;6.754;2023-04-24T08:57:55;11.07;;;6.20;;
28003;SDS011;15330;51.234;6.754;2023-04-24T09:00:22;8.63;;;5.72;;
28003;SDS011;15330;51.234;6.754;2023-04-24T09:02:48;10.93;;;6.45;;
28003;SDS011;15330;51.234;6.754;2023-04-24T09:05:16;5.60;;;4.35;;
28003;SDS011;15330;51.234;6.754;2023-04-24T09:07:43;7.10;;;4.43;;
28003;SDS011;15330;51.234;6.754;2023-04-24T09:10:13;6.65;;;4.40;;
28003;SDS011;15330;51.234;6.754;2023-04-24T09:12:39;6.28;;;4.18;;
28003;SDS011;15330;51.234;6.754;2023-04-24T09:15:06;9.90;;;5.45;;
28003;SDS011;15330;51.234;6.754;2023-04-24T09:17:33;7.55;;;5.25;;
28003;SDS011;15330;51.234;6.754;2023-04-24T09:19:59;9.48;;;5.35;;
28003;SDS011;15330;51.234;6.754;2023-04-24T09:22:24;14.02;;;7.47;;
28003;SDS011;15330;51.234;6.754;2023-04-24T09:24:59;12.55;;;6.68;;
28003;SDS011;15330;51.234;6.754;2023-04-24T09:27:28;15.98;;;9.63;;
28003;SDS011;15330;51.234;6.754;2023-04-24T09:29:54;14.38;;;7.65;;
28003;SDS011;15330;51.234;6.754;2023-04-24T09:32:23;11.65;;;5.78;;
28003;SDS011;15330;51.234;6.754;2023-04-24T09:37:41;13.02;;;8.27;;
28003;SDS011;15330;51.234;6.754;2023-04-24T09:40:08;13.88;;;6.60;;
28003;SDS011;15330;51.234;6.754;2023-04-24T09:42:36;15.13;;;9.38;;
28003;SDS011;15330;51.234;6.754;2023-04-24T09:45:02;22.65;;;11.35;;
28003;SDS011;15330;51.234;6.754;2023-04-24T09:47:28;18.63;;;8.10;;
28003;SDS011;15330;51.234;6.754;2023-04-24T09:50:01;13.82;;;8.73;;
28003;SDS011;15330;51.234;6.754;2023-04-24T09:52:34;17.27;;;8.38;;
28003;SDS011;15330;51.234;6.754;2023-04-24T09:55:00;15.07;;;9.07;;
28003;SDS011;15330;51.234;6.754;2023-04-24T09:57:25;16.70;;;8.60;;
28003;SDS011;15330;51.234;6.754;2023-04-24T09:59:51;36.38;;;16.80;;
28003;SDS011;15330;51.234;6.754;2023-04-24T10:02:19;54.03;;;24.92;;
28003;SDS011;15330;51.234;6.754;2023-04-24T10:04:54;19.45;;;9.55;;
28003;SDS011;15330;51.234;6.754;2023-04-24T10:07:27;22.20;;;11.60;;
28003;SDS011;15330;51.234;6.754;2023-04-24T10:09:52;34.33;;;15.32;;
28003;SDS011;15330;51.234;6.754;2023-04-24T10:12:18;20.17;;;11.27;;
28003;SDS011;15330;51.234;6.754;2023-04-24T10:14:44;15.95;;;9.57;;
28003;SDS011;15330;51.234;6.754;2023-04-24T10:17:10;43.95;;;20.38;;
28003;SDS011;15330;51.234;6.754;2023-04-24T10:19:37;19.98;;;11.13;;
28003;SDS011;15330;51.234;6.754;2023-04-24T10:22:05;17.38;;;9.25;;
28003;SDS011;15330;51.234;6.754;2023-04-24T10:24:31;21.27;;;10.68;;
28003;SDS011;15330;51.234;6.754;2023-04-24T10:26:58;18.73;;;10.40;;
28003;SDS011;15330;51.234;6.754;2023-04-24T10:29:26;28.42;;;12.18;;
28003;SDS011;15330;51.234;6.754;2023-04-24T10:31:53;17.60;;;9.70;;
28003;SDS011;15330;51.234;6.754;2023-04-24T10:34:18;22.83;;;9.40;;
28003;SDS011;15330;51.234;6.754;2023-04-24T10:36:48;25.15;;;11.50;;
28003;SDS011;15330;51.234;6.754;2023-04-24T10:39:17;19.77;;;9.73;;
28003;SDS011;15330;51.234;6.754;2023-04-24T10:41:44;23.33;;;9.40;;
28003;SDS011;15330;51.234;6.754;2023-04-24T10:44:12;17.55;;;10.20;;
28003;SDS011;15330;51.234;6.754;2023-04-24T10:46:44;25.63;;;11.98;;
28003;SDS011;15330;51.234;6.754;2023-04-24T10:49:12;28.90;;;12.93;;
28003;SDS011;15330;51.234;6.754;2023-04-24T10:51:47;19.40;;;9.23;;
28003;SDS011;15330;51.234;6.754;2023-04-24T10:56:55;19.25;;;8.40;;
28003;SDS011;15330;51.234;6.754;2023-04-24T10:59:44;15.25;;;8.40;;
28003;SDS011;15330;51.234;6.754;2023-04-24T11:02:10;25.65;;;10.05;;
28003;SDS011;15330;51.234;6.754;2023-04-24T11:04:36;18.58;;;7.55;;
28003;SDS011;15330;51.234;6.754;2023-04-24T11:07:04;30.90;;;11.55;;
28003;SDS011;15330;51.234;6.754;2023-04-24T11:09:30;29.73;;;12.73;;
28003;SDS011;15330;51.234;6.754;2023-04-24T11:12:06;24.13;;;7.20;;
28003;SDS011;15330;51.234;6.754;2023-04-24T11:17:34;13.93;;;6.00;;
28003;SDS011;15330;51.234;6.754;2023-04-24T11:20:09;15.05;;;6.07;;
28003;SDS011;15330;51.234;6.754;2023-04-24T11:22:37;13.88;;;5.97;;
28003;SDS011;15330;51.234;6.754;2023-04-24T11:25:06;20.95;;;7.35;;
28003;SDS011;15330;51.234;6.754;2023-04-24T11:27:40;16.15;;;6.70;;
28003;SDS011;15330;51.234;6.754;2023-04-24T11:30:07;17.75;;;6.50;;
28003;SDS011;15330;51.234;6.754;2023-04-24T11:37:43;13.18;;;5.63;;
28003;SDS011;15330;51.234;6.754;2023-04-24T11:40:11;18.30;;;7.38;;
28003;SDS011;15330;51.234;6.754;2023-04-24T11:42:44;15.68;;;5.97;;
28003;SDS011;15330;51.234;6.754;2023-04-24T11:45:11;17.83;;;5.40;;
28003;SDS011;15330;51.234;6.754;2023-04-24T11:47:38;18.83;;;6.00;;
28003;SDS011;15330;51.234;6.754;2023-04-24T11:50:05;17.27;;;7.25;;
28003;SDS011;15330;51.234;6.754;2023-04-24T11:52:33;13.32;;;5.45;;
28003;SDS011;15330;51.234;6.754;2023-04-24T11:55:02;12.90;;;5.10;;
28003;SDS011;15330;51.234;6.754;2023-04-24T11:57:28;17.33;;;5.65;;
28003;SDS011;15330;51.234;6.754;2023-04-24T11:59:59;21.17;;;8.32;;
28003;SDS011;15330;51.234;6.754;2023-04-24T12:02:25;14.00;;;5.38;;
28003;SDS011;15330;51.234;6.754;2023-04-24T12:04:52;14.18;;;5.38;;
28003;SDS011;15330;51.234;6.754;2023-04-24T12:07:18;19.13;;;8.02;;
28003;SDS011;15330;51.234;6.754;2023-04-24T12:09:45;17.38;;;5.90;;
28003;SDS011;15330;51.234;6.754;2023-04-24T12:12:11;17.98;;;5.30;;
28003;SDS011;15330;51.234;6.754;2023-04-24T12:14:50;13.35;;;4.40;;
28003;SDS011;15330;51.234;6.754;2023-04-24T12:17:23;14.02;;;4.78;;
28003;SDS011;15330;51.234;6.754;2023-04-24T12:19:49;13.30;;;5.25;;
28003;SDS011;15330;51.234;6.754;2023-04-24T12:22:15;14.43;;;4.35;;
28003;SDS011;15330;51.234;6.754;2023-04-24T12:27:31;20.08;;;4.50;;
28003;SDS011;15330;51.234;6.754;2023-04-24T12:29:58;8.38;;;3.67;;
28003;SDS011;15330;51.234;6.754;2023-04-24T12:32:24;15.48;;;4.07;;
28003;SDS011;15330;51.234;6.754;2023-04-24T12:34:51;8.30;;;3.30;;
28003;SDS011;15330;51.234;6.754;2023-04-24T12:37:17;11.80;;;3.10;;
28003;SDS011;15330;51.234;6.754;2023-04-24T12:42:26;10.98;;;2.97;;
28003;SDS011;15330;51.234;6.754;2023-04-24T12:44:55;6.40;;;2.17;;
28003;SDS011;15330;51.234;6.754;2023-04-24T12:47:22;7.65;;;2.65;;
28003;SDS011;15330;51.234;6.754;2023-04-24T12:49:47;6.88;;;2.55;;
28003;SDS011;15330;51.234;6.754;2023-04-24T12:52:15;6.32;;;2.45;;
28003;SDS011;15330;51.234;6.754;2023-04-24T12:54:42;7.40;;;2.17;;
28003;SDS011;15330;51.234;6.754;2023-04-24T12:57:07;6.03;;;1.85;;
28003;SDS011;15330;51.234;6.754;2023-04-24T12:59:33;7.80;;;2.63;;
28003;SDS011;15330;51.234;6.754;2023-04-24T13:01:58;7.25;;;2.22;;
28003;SDS011;15330;51.234;6.754;2023-04-24T13:04:23;4.93;;;2.10;;
28003;SDS011;15330;51.234;6.754;2023-04-24T13:06:49;5.60;;;1.90;;
28003;SDS011;15330;51.234;6.754;2023-04-24T13:09:15;5.60;;;1.88;;
28003;SDS011;15330;51.234;6.754;2023-04-24T13:11:40;8.30;;;2.40;;
28003;SDS011;15330;51.234;6.754;2023-04-24T13:14:05;9.63;;;2.00;;
28003;SDS011;15330;51.234;6.754;2023-04-24T13:16:31;4.07;;;1.60;;
28003;SDS011;15330;51.234;6.754;2023-04-24T13:18:56;6.63;;;2.08;;
28003;SDS011;15330;51.234;6.754;2023-04-24T13:21:22;4.43;;;1.92;;
28003;SDS011;15330;51.234;6.754;2023-04-24T13:23:47;3.78;;;2.10;;
28003;SDS011;15330;51.234;6.754;2023-04-24T13:26:12;8.38;;;2.20;;
28003;SDS011;15330;51.234;6.754;2023-04-24T13:28:38;8.02;;;2.85;;
28003;SDS011;15330;51.234;6.754;2023-04-24T13:31:03;7.18;;;1.70;;
28003;SDS011;15330;51.234;6.754;2023-04-24T13:33:29;5.43;;;1.90;;
28003;SDS011;15330;51.234;6.754;2023-04-24T13:35:54;4.70;;;1.95;;
28003;SDS011;15330;51.234;6.754;2023-04-24T13:38:20;4.57;;;1.83;;
28003;SDS011;15330;51.234;6.754;2023-04-24T13:40:47;8.57;;;1.90;;
28003;SDS011;15330;51.234;6.754;2023-04-24T13:43:12;4.28;;;2.03;;
28003;SDS011;15330;51.234;6.754;2023-04-24T13:45:38;5.18;;;1.92;;
28003;SDS011;15330;51.234;6.754;2023-04-24T13:48:03;6.53;;;1.83;;
28003;SDS011;15330;51.234;6.754;2023-04-24T13:50:28;9.07;;;2.40;;
28003;SDS011;15330;51.234;6.754;2023-04-24T13:52:54;9.50;;;3.15;;
28003;SDS011;15330;51.234;6.754;2023-04-24T13:55:21;7.00;;;2.55;;
28003;SDS011;15330;51.234;6.754;2023-04-24T13:57:47;9.73;;;2.28;;
28003;SDS011;15330;51.234;6.754;2023-04-24T14:00:12;7.78;;;2.67;;
28003;SDS011;15330;51.234;6.754;2023-04-24T14:02:38;5.32;;;1.80;;
28003;SDS011;15330;51.234;6.754;2023-04-24T14:05:04;5.35;;;2.05;;
28003;SDS011;15330;51.234;6.754;2023-04-24T14:07:30;6.90;;;2.42;;
28003;SDS011;15330;51.234;6.754;2023-04-24T14:09:55;6.68;;;1.90;;
28003;SDS011;15330;51.234;6.754;2023-04-24T14:12:21;9.02;;;2.50;;
28003;SDS011;15330;51.234;6.754;2023-04-24T14:14:47;9.02;;;2.28;;
28003;SDS011;15330;51.234;6.754;2023-04-24T14:17:13;5.43;;;2.50;;
28003;SDS011;15330;51.234;6.754;2023-04-24T14:19:39;8.82;;;2.92;;
28003;SDS011;15330;51.234;6.754;2023-04-24T14:22:04;7.40;;;1.83;;
28003;SDS011;15330;51.234;6.754;2023-04-24T14:24:30;3.58;;;1.88;;
28003;SDS011;15330;51.234;6.754;2023-04-24T14:26:56;6.82;;;1.92;;
28003;SDS011;15330;51.234;6.754;2023-04-24T14:29:22;5.80;;;1.88;;
28003;SDS011;15330;51.234;6.754;2023-04-24T14:31:47;4.90;;;2.33;;
28003;SDS011;15330;51.234;6.754;2023-04-24T14:34:13;9.05;;;3.05;;
28003;SDS011;15330;51.234;6.754;2023-04-24T14:36:39;5.22;;;1.73;;
28003;SDS011;15330;51.234;6.754;2023-04-24T14:39:04;4.32;;;1.70;;
28003;SDS011;15330;51.234;6.754;2023-04-24T14:41:32;3.47;;;1.60;;
28003;SDS011;15330;51.234;6.754;2023-04-24T14:44:00;9.55;;;2.03;;
28003;SDS011;15330;51.234;6.754;2023-04-24T14:46:27;6.50;;;2.53;;
28003;SDS011;15330;51.234;6.754;2023-04-24T14:48:54;6.78;;;1.80;;